Time;durP1;ratioP1;P1;durP2;ratioP2;P2;SDS_P1;SDS_P2;PMS_P1;PMS_P2;Temp;Humidity;BMP_temperature;BMP_pressure;BME280_temperature;BME280_humidity;BME280_pressure;Samples;Min_cycle;Max_cycle;Signal;HPM_P1;HPM_P2
2022/08/02 18:37:00;;;;;;;21.77;8.88;;;;;;;21.08;100.00;99150.36;2238245;79;21963;-68
2022/08/02 18:40:02;;;;;;;23.73;10.53;;;;;;;20.88;100.00;99154.17;2169607;81;21086;-73
2022/08/02 18:43:03;;;;;;;21.23;9.50;;;;;;;20.59;100.00;99153.34;2188329;81;21004;-72
2022/08/02 18:46:06;;;;;;;;;;;;;;;20.40;100.00;99154.78;2191609;81;20985;-72
2022/08/02 18:49:08;;;;;;;23.55;9.68;;;;;;;20.24;100.00;99153.63;2189085;81;20096;-72
2022/08/02 18:52:09;;;;;;;23.02;8.40;;;;;;;20.08;100.00;99162.72;2189310;81;21526;-72
2022/08/02 18:55:11;;;;;;;20.15;8.70;;;;;;;19.96;100.00;99171.39;2189276;81;21020;-73
2022/08/02 18:58:15;;;;;;;21.87;9.15;;;;;;;19.93;100.00;99159.70;2189327;81;21494;-71
2022/08/02 19:01:16;;;;;;;24.00;9.58;;;;;;;19.86;100.00;99162.60;2131353;83;20952;-69
2022/08/02 19:04:18;;;;;;;21.82;9.48;;;;;;;19.77;100.00;99167.41;2147630;83;21063;-69
2022/08/02 19:07:20;;;;;;;21.15;9.13;;;;;;;19.72;100.00;99170.52;2147764;83;21007;-68
2022/08/02 19:10:22;;;;;;;21.05;9.50;;;;;;;19.65;100.00;99161.42;2147604;83;21007;-73
2022/08/02 19:13:23;;;;;;;24.43;10.25;;;;;;;19.57;100.00;99172.80;2147872;83;20995;-73
2022/08/02 19:16:26;;;;;;;26.35;11.63;;;;;;;19.47;100.00;99174.14;2130873;84;20969;-72
2022/08/02 19:19:27;;;;;;;24.35;11.33;;;;;;;19.42;100.00;99169.72;2144231;83;20992;-69
2022/08/02 19:22:29;;;;;;;23.32;9.50;;;;;;;19.39;100.00;99175.33;2144362;83;21523;-72
2022/08/02 19:25:30;;;;;;;23.00;10.10;;;;;;;19.33;100.00;99175.40;2144574;83;20999;-62
2022/08/02 19:28:32;;;;;;;27.00;9.88;;;;;;;19.29;100.00;99174.50;2144334;83;21084;-63
2022/08/02 19:31:33;;;;;;;25.43;10.18;;;;;;;19.24;100.00;99173.60;2144375;83;21051;-65
2022/08/02 19:34:34;;;;;;;24.32;10.90;;;;;;;19.23;100.00;99174.57;2142900;83;21127;-70
2022/08/02 19:37:38;;;;;;;24.77;12.20;;;;;;;19.11;100.00;99183.19;2135103;83;21494;-66
2022/08/02 19:40:40;;;;;;;31.45;15.08;;;;;;;19.02;100.00;99180.88;2134959;83;21020;-64
2022/08/02 19:43:42;;;;;;;40.10;20.92;;;;;;;18.96;100.00;99169.45;2134903;83;21043;-68
2022/08/02 19:46:44;;;;;;;39.85;20.75;;;;;;;18.96;100.00;99169.45;2134725;83;21004;-67
2022/08/02 19:49:45;;;;;;;36.48;17.67;;;;;;;18.95;100.00;99177.09;2134547;83;21103;-63
2022/08/02 19:52:47;;;;;;;32.35;17.52;;;;;;;18.90;100.00;99179.31;2134378;83;21099;-65
2022/08/02 19:55:48;;;;;;;40.08;18.35;;;;;;;18.84;100.00;99174.03;2134461;83;21948;-66
2022/08/02 19:58:50;;;;;;;36.83;19.70;;;;;;;18.84;100.00;99182.50;2134322;83;21091;-65
2022/08/02 20:01:52;;;;;;;32.10;16.17;;;;;;;18.77;100.00;99183.53;2134543;83;20996;-67
2022/08/02 20:04:53;;;;;;;;;;;;;;;18.76;100.00;99190.31;2136835;83;21085;-66
2022/08/02 20:07:55;;;;;;;37.13;19.57;;;;;;;18.66;100.00;99187.63;2134506;83;20153;-67
2022/08/02 20:10:57;;;;;;;;;;;;;;;18.59;100.00;99183.38;2136957;83;21100;-66
2022/08/02 20:13:58;;;;;;;39.50;21.05;;;;;;;18.59;100.00;99182.05;2134243;83;20169;-66
2022/08/02 20:17:03;;;;;;;36.08;18.75;;;;;;;18.57;100.00;99180.49;2134398;83;21084;-64
2022/08/02 20:20:03;;;;;;;39.20;20.23;;;;;;;18.59;100.00;99183.84;2116288;83;20997;-64
2022/08/02 20:26:08;;;;;;;16.77;6.40;;;;;;;18.39;100.00;99186.92;2116165;83;21558;-67
2022/08/02 20:29:10;;;;;;;22.10;4.60;;;;;;;18.30;100.00;99192.56;2134357;83;21155;-65
2022/08/02 20:32:13;;;;;;;16.70;6.08;;;;;;;18.20;100.00;99193.02;2134429;83;21590;-67
2022/08/02 20:35:14;;;;;;;18.67;7.03;;;;;;;18.08;100.00;99186.96;2134114;83;21148;-65
2022/08/02 20:38:16;;;;;;;26.73;5.30;;;;;;;18.05;100.00;99185.91;2134601;83;20969;-66
2022/08/02 20:41:17;;;;;;;16.17;5.58;;;;;;;17.91;100.00;99184.43;2134386;83;21089;-65
2022/08/02 20:44:19;;;;;;;16.87;5.55;;;;;;;17.72;100.00;99183.81;2134464;83;21562;-67
2022/08/02 20:47:20;;;;;;;14.98;6.28;;;;;;;17.78;100.00;99182.78;2134376;83;21057;-66
2022/08/02 20:53:25;;;;;;;16.27;6.37;;;;;;;17.82;100.00;99187.36;2108232;83;21008;-62
2022/08/02 20:56:27;;;;;;;14.63;5.95;;;;;;;17.73;100.00;99186.80;2134174;83;21132;-65
2022/08/02 20:59:30;;;;;;;21.55;7.45;;;;;;;17.72;100.00;99179.83;2134542;83;21578;-62
2022/08/02 21:02:31;;;;;;;20.43;8.00;;;;;;;17.72;100.00;99181.99;2107879;83;21444;-66
2022/08/02 21:05:33;;;;;;;18.20;7.30;;;;;;;17.76;100.00;99179.44;2134316;83;21057;-65
2022/08/02 21:08:34;;;;;;;19.60;8.10;;;;;;;17.77;100.00;99185.10;2134503;83;21021;-69
2022/08/02 21:11:36;;;;;;;18.45;7.42;;;;;;;17.78;100.00;99185.94;2134410;83;21590;-65
2022/08/02 21:14:37;;;;;;;19.40;8.13;;;;;;;17.81;100.00;99181.22;2134523;83;21059;-66
2022/08/02 21:17:38;;;;;;;19.00;8.38;;;;;;;17.86;100.00;99182.15;2134433;83;21117;-67
2022/08/02 21:20:40;;;;;;;20.30;8.80;;;;;;;17.89;100.00;99179.23;2134476;83;20985;-63
2022/08/02 21:23:41;;;;;;;26.17;10.10;;;;;;;17.93;100.00;99177.16;2134430;83;21273;-66
2022/08/02 21:26:45;;;;;;;21.57;9.10;;;;;;;18.03;100.00;99174.09;2134098;83;21120;-63
2022/08/02 21:29:47;;;;;;;19.10;7.72;;;;;;;18.10;100.00;99173.92;2134269;83;21065;-62
2022/08/02 21:32:50;;;;;;;20.75;6.72;;;;;;;18.11;100.00;99178.23;2134513;83;21106;-63
2022/08/02 21:35:52;;;;;;;18.95;7.28;;;;;;;18.14;100.00;99175.80;2131511;83;21017;-65
2022/08/02 21:38:56;;;;;;;17.77;7.72;;;;;;;18.15;100.00;99173.02;2127542;83;21053;-62
2022/08/02 21:41:57;;;;;;;19.90;7.92;;;;;;;18.15;100.00;99175.67;2099975;84;21500;-65
2022/08/02 21:44:59;;;;;;;17.37;7.90;;;;;;;18.08;100.00;99175.84;2127279;84;21095;-65
2022/08/02 21:48:01;;;;;;;18.57;7.75;;;;;;;18.06;100.00;99175.16;2127474;84;21606;-62
2022/08/02 21:51:02;;;;;;;19.42;7.10;;;;;;;18.05;100.00;99179.27;2127011;84;21116;-64
2022/08/02 21:54:04;;;;;;;19.55;8.03;;;;;;;17.98;100.00;99180.28;2127244;84;21068;-62
2022/08/02 21:57:05;;;;;;;18.90;7.53;;;;;;;17.99;100.00;99184.62;2127467;84;20992;-64
2022/08/02 22:00:06;;;;;;;15.32;5.78;;;;;;;17.94;100.00;99189.00;2127319;84;21008;-65
2022/08/02 22:03:08;;;;;;;16.62;6.05;;;;;;;17.88;100.00;99187.32;2127319;84;20988;-66
2022/08/02 22:06:09;;;;;;;19.57;7.58;;;;;;;17.87;100.00;99192.27;2127285;84;21531;-64
2022/08/02 22:09:11;;;;;;;18.62;7.75;;;;;;;17.90;100.00;99192.00;2127351;84;21105;-64
2022/08/02 22:12:12;;;;;;;17.73;6.78;;;;;;;17.87;100.00;99187.81;2127357;83;21051;-64
2022/08/02 22:15:14;;;;;;;17.02;7.20;;;;;;;17.84;100.00;99193.36;2127181;83;21673;-62
2022/08/02 22:18:15;;;;;;;22.58;7.95;;;;;;;17.83;100.00;99193.03;2127366;83;20992;-68
2022/08/02 22:21:16;;;;;;;20.70;7.78;;;;;;;17.82;100.00;99194.82;2127295;84;21530;-66
2022/08/02 22:24:18;;;;;;;17.95;7.83;;;;;;;17.87;100.00;99196.24;2127355;84;20961;-66
2022/08/02 22:27:19;;;;;;;19.73;8.03;;;;;;;17.96;100.00;99199.48;2127280;83;21088;-64
2022/08/02 22:30:21;;;;;;;17.40;6.80;;;;;;;17.90;100.00;99194.65;2127252;84;21558;-63
2022/08/02 22:36:25;;;;;;;14.30;5.90;;;;;;;17.69;100.00;99192.86;2103029;83;21025;-66
2022/08/02 22:39:27;;;;;;;16.20;6.22;;;;;;;17.60;100.00;99187.86;2134501;83;21546;-65
2022/08/02 22:42:28;;;;;;;20.85;8.35;;;;;;;17.57;100.00;99196.54;2134389;83;21100;-66
2022/08/02 22:45:31;;;;;;;20.12;7.72;;;;;;;17.52;100.00;99192.96;2133957;83;21557;-63
2022/08/02 22:48:32;;;;;;;21.07;7.85;;;;;;;17.53;100.00;99189.34;2134400;83;21163;-70
2022/08/02 22:51:33;;;;;;;21.00;8.60;;;;;;;17.47;100.00;99192.02;2134395;83;21547;-64
2022/08/02 22:54:35;;;;;;;21.57;8.98;;;;;;;17.48;100.00;99191.53;2134566;83;21023;-66
2022/08/02 22:57:36;;;;;;;20.32;8.13;;;;;;;17.47;100.00;99190.70;2134378;83;21064;-69
2022/08/02 23:00:38;;;;;;;22.45;9.83;;;;;;;17.46;100.00;99198.29;2134413;83;21104;-64
2022/08/02 23:03:39;;;;;;;26.93;10.05;;;;;;;17.57;100.00;99192.56;2134733;83;21043;-64
2022/08/02 23:06:41;;;;;;;25.43;10.70;;;;;;;17.63;100.00;99192.07;2134490;83;21542;-63
2022/08/02 23:09:42;;;;;;;25.05;10.70;;;;;;;17.62;100.00;99192.53;2134282;83;21164;-68
2022/08/02 23:12:43;;;;;;;21.68;9.33;;;;;;;17.53;100.00;99190.67;2134081;83;21574;-67
2022/08/02 23:21:51;;;;;;;23.67;11.12;;;;;;;17.36;100.00;99183.30;2116141;83;21060;-68
2022/08/02 23:24:53;;;;;;;19.98;7.70;;;;;;;17.26;100.00;99190.67;2134764;83;21586;-69
2022/08/02 23:27:54;;;;;;;19.45;7.12;;;;;;;17.25;100.00;99194.78;2134702;83;21049;-69
2022/08/02 23:30:56;;;;;;;18.35;6.92;;;;;;;17.22;100.00;99190.56;2134670;83;21120;-64
2022/08/02 23:33:57;;;;;;;9.05;3.87;;;;;;;17.20;100.00;99185.06;2134753;83;21004;-66
2022/08/02 23:36:59;;;;;;;11.20;4.20;;;;;;;17.26;100.00;99187.19;2134411;83;21083;-63
2022/08/02 23:40:00;;;;;;;7.55;3.85;;;;;;;17.13;100.00;99183.39;2134784;83;21056;-65
2022/08/02 23:43:02;;;;;;;12.53;4.47;;;;;;;17.29;100.00;99182.46;2134216;83;21107;-69
2022/08/02 23:46:03;;;;;;;13.58;4.90;;;;;;;17.40;100.00;99175.45;2134730;83;21606;-67
2022/08/02 23:49:05;;;;;;;14.65;5.55;;;;;;;17.23;100.00;99177.68;2134554;83;21060;-70
2022/08/02 23:52:06;;;;;;;17.65;6.80;;;;;;;17.10;100.00;99172.55;2134790;83;21507;-69
2022/08/02 23:55:08;;;;;;;20.03;8.57;;;;;;;17.04;100.00;99182.34;2134845;83;21024;-69
2022/08/02 23:58:10;;;;;;;19.92;7.80;;;;;;;17.00;100.00;99180.08;2134835;83;21746;-73
